Main page
METAR-TAF:

METAR-TAF

Airports :

Turin, Italy

Turin-Aeritalia Airport

latitude: 45-05-20N, longitude: 007-36-20E, elevation: 288 m

Current weather observation

The report was made 1 hour and 5 minutes ago, at 09:50 UTC
Calm wind
Temperature 10°C
Humidity 76%
Pressure 1021 hPa
Visibility: 2000 m
mist

METAR: LIMA 230950Z 00000KT 2000 BR NSC 10/06 Q1021

Time: 11:55 (10:55 UTC)


TAF: missing

Weather observations and forecasts of more than 4000 airports (METAR and TAF reports).

The available stations are represented by yellow and red dots on the map.

Hover mouse over dot to see the name of the station.

Then click to see weather observations and forecasts.

To change the map : click on the green buttons with a black cross to zoom in, on the green button with a dash to zoom out, or on the green arrows for adjacent maps.


METAR-TAF: